In Rescue
 
Open Full Screen Window  High Contrast Mode
Wind Gusting 00 knots
09
March 01, 2024 4:46 PM EST
Weather Information
Wind Direction
  170 °
Wind Speed
  09 kt (10 mph)
Wind Gust
  00 kt (0 mph)
Altimeter
30.13 in
Visibility
10 SM
Temperature
07° C
45° F
Dewpoint
-07° C
19° F
Humidity
36%
Sky Condition
Few @ 11,000 ft
VFR

METAR KFPK 012146Z AUTO 17009KT 10SM FEW110 07/M07 A3013 RMK AO2

FAA Disclaimer: The data displayed is for advisory purposes only and is not to be used for flight planning or operations.